Time;durP1;ratioP1;P1;durP2;ratioP2;P2;SDS_P1;SDS_P2;PMS_P1;PMS_P2;Temp;Humidity;BMP_temperature;BMP_pressure;BME280_temperature;BME280_humidity;BME280_pressure;Samples;Min_cycle;Max_cycle;Signal;HPM_P1;HPM_P2
2022/07/10 00:00:55;;;;;;;2.88;1.00;;;;;;;17.21;49.24;100763.38;5090717;28;20048;-61
2022/07/10 00:03:23;;;;;;;4.80;1.25;;;;;;;17.13;49.39;100755.94;5090768;28;20040;-60
2022/07/10 00:05:50;;;;;;;4.40;1.27;;;;;;;17.10;49.59;100752.63;5089549;28;20075;-60
2022/07/10 00:08:16;;;;;;;8.02;0.98;;;;;;;17.06;49.52;100752.00;5090309;28;20060;-61
2022/07/10 00:10:43;;;;;;;6.25;1.13;;;;;;;17.02;49.66;100754.00;5090604;28;20044;-60
2022/07/10 00:13:09;;;;;;;4.88;1.17;;;;;;;16.99;49.88;100763.97;5090468;28;20051;-62
2022/07/10 00:15:36;;;;;;;2.88;1.05;;;;;;;16.96;50.11;100753.56;5090626;28;20052;-60
2022/07/10 00:18:03;;;;;;;4.38;1.10;;;;;;;16.92;50.04;100755.56;5090449;28;20059;-66
2022/07/10 00:20:29;;;;;;;4.50;1.27;;;;;;;16.89;50.25;100758.41;5090330;28;20093;-64
2022/07/10 00:22:56;;;;;;;7.65;1.02;;;;;;;16.87;50.46;100763.00;5090587;28;20052;-62
2022/07/10 00:25:28;;;;;;;7.38;1.55;;;;;;;16.86;50.68;100761.31;5090722;28;20052;-60
2022/07/10 00:27:54;;;;;;;6.95;1.48;;;;;;;16.85;50.69;100768.41;5090645;28;20051;-61
2022/07/10 00:30:21;;;;;;;3.92;1.10;;;;;;;16.87;51.02;100773.63;5089046;28;20048;-61
2022/07/10 00:32:48;;;;;;;10.38;1.70;;;;;;;16.89;51.03;100769.03;5090134;28;20044;-63
2022/07/10 00:35:14;;;;;;;5.15;0.95;;;;;;;16.91;51.06;100760.03;5090324;28;20044;-61
2022/07/10 00:37:41;;;;;;;4.40;1.00;;;;;;;16.93;51.00;100762.56;5091603;28;20052;-62
2022/07/10 00:40:07;;;;;;;6.25;1.20;;;;;;;16.93;51.08;100765.22;5094428;28;20052;-62
2022/07/10 00:42:34;;;;;;;9.43;1.27;;;;;;;16.93;51.03;100762.56;5094279;28;20097;-63
2022/07/10 00:45:01;;;;;;;4.97;1.27;;;;;;;16.95;51.06;100763.34;5093023;28;20052;-62
2022/07/10 00:47:27;;;;;;;4.68;1.20;;;;;;;16.94;51.24;100759.81;5092846;28;20051;-61
2022/07/10 00:49:54;;;;;;;6.95;1.58;;;;;;;16.96;51.31;100759.72;5093990;28;20063;-60
2022/07/10 00:52:21;;;;;;;6.50;1.58;;;;;;;16.97;51.27;100761.41;5094076;28;20063;-60
2022/07/10 00:54:52;;;;;;;5.45;1.30;;;;;;;16.99;51.24;100764.81;5094218;28;20044;-60
2022/07/10 00:57:20;;;;;;;5.85;1.35;;;;;;;17.00;51.35;100758.53;5092922;28;20052;-64
2022/07/10 00:59:48;;;;;;;3.95;0.93;;;;;;;17.00;51.45;100755.88;5093792;28;20105;-62
2022/07/10 01:02:16;;;;;;;6.55;1.45;;;;;;;17.02;51.02;100748.66;5093923;28;20054;-61
2022/07/10 01:04:43;;;;;;;6.93;1.30;;;;;;;17.03;51.47;100746.84;5094002;28;20098;-63
2022/07/10 01:07:09;;;;;;;4.93;0.80;;;;;;;17.03;51.36;100737.06;5094046;28;20048;-60
2022/07/10 01:09:37;;;;;;;10.35;1.90;;;;;;;17.04;51.66;100743.22;5093436;28;20181;-60
2022/07/10 01:12:04;;;;;;;6.80;1.30;;;;;;;17.03;51.29;100737.06;5092588;28;20481;-61
2022/07/10 01:14:31;;;;;;;6.78;1.33;;;;;;;17.04;51.48;100730.81;5092252;28;20056;-60
2022/07/10 01:16:58;;;;;;;5.25;1.38;;;;;;;17.04;51.41;100741.44;5093606;28;20634;-61
2022/07/10 01:19:25;;;;;;;5.18;1.08;;;;;;;17.05;51.29;100731.69;5093179;28;20052;-61
2022/07/10 01:21:52;;;;;;;8.23;1.65;;;;;;;17.04;51.47;100730.81;5093692;28;20048;-60
2022/07/10 01:24:18;;;;;;;3.65;1.10;;;;;;;17.05;51.40;100734.34;5093331;28;20044;-62
2022/07/10 01:26:45;;;;;;;5.68;1.25;;;;;;;17.04;51.30;100735.22;5093531;28;20138;-63
2022/07/10 01:29:12;;;;;;;6.95;1.45;;;;;;;17.01;51.31;100730.97;5093058;28;20068;-61
2022/07/10 01:31:41;;;;;;;5.75;1.20;;;;;;;16.98;51.46;100731.22;5092435;28;20048;-61
2022/07/10 01:34:09;;;;;;;3.50;1.10;;;;;;;16.94;51.33;100732.38;5093296;28;20044;-60
2022/07/10 01:36:36;;;;;;;7.47;1.40;;;;;;;16.91;51.51;100720.16;5093442;28;20059;-62
2022/07/10 01:39:04;;;;;;;3.42;0.90;;;;;;;16.88;51.66;100716.81;5093016;28;20044;-60
2022/07/10 01:41:30;;;;;;;4.13;1.30;;;;;;;16.87;51.60;100707.16;5092100;28;20067;-60
2022/07/10 01:43:57;;;;;;;7.85;1.55;;;;;;;16.86;51.77;100710.78;5093089;28;20453;-61
2022/07/10 01:46:24;;;;;;;3.95;1.30;;;;;;;16.83;51.79;100706.53;5093264;28;20048;-63
2022/07/10 01:48:51;;;;;;;5.28;0.95;;;;;;;16.81;51.87;100705.75;5091725;28;20537;-59
2022/07/10 01:51:18;;;;;;;9.20;1.50;;;;;;;16.79;51.71;100720.97;5092520;28;20048;-62
2022/07/10 01:53:44;;;;;;;4.80;1.08;;;;;;;16.77;51.87;100706.91;5093002;28;20056;-60
2022/07/10 01:56:13;;;;;;;5.70;1.25;;;;;;;16.74;52.08;100702.66;5092915;28;20393;-60
2022/07/10 01:58:40;;;;;;;4.32;1.08;;;;;;;16.72;52.26;100699.28;5092618;28;20479;-65
2022/07/10 02:01:09;;;;;;;4.47;1.20;;;;;;;16.72;52.19;100698.41;5092926;28;20079;-63
2022/07/10 02:06:21;;;;;;;4.10;1.33;;;;;;;16.69;52.29;100691.50;5092664;28;20048;-62
2022/07/10 02:08:47;;;;;;;5.53;1.20;;;;;;;16.68;52.42;100700.44;5092244;28;20048;-60
2022/07/10 02:11:14;;;;;;;5.55;1.60;;;;;;;16.67;52.38;100704.03;5092394;28;20060;-62
2022/07/10 02:13:41;;;;;;;3.67;0.90;;;;;;;16.67;52.33;100698.72;5092500;28;20048;-62
2022/07/10 02:16:07;;;;;;;6.15;1.13;;;;;;;16.66;52.57;100705.84;5091155;28;20052;-60
2022/07/10 02:18:35;;;;;;;6.97;1.55;;;;;;;16.66;52.68;100694.34;5092359;28;20051;-61
2022/07/10 02:21:02;;;;;;;6.97;1.20;;;;;;;16.67;52.70;100696.06;5092197;28;20048;-63
2022/07/10 02:23:29;;;;;;;6.22;1.30;;;;;;;16.66;52.75;100689.03;5092196;28;20052;-60
2022/07/10 02:25:55;;;;;;;6.78;1.13;;;;;;;16.67;52.83;100690.75;5092620;28;20052;-62
2022/07/10 02:28:22;;;;;;;5.07;1.15;;;;;;;16.67;53.01;100688.94;5092085;28;20496;-63
2022/07/10 02:30:49;;;;;;;4.70;1.40;;;;;;;16.69;52.97;100678.22;5092097;28;20052;-62
2022/07/10 02:33:15;;;;;;;5.47;1.20;;;;;;;16.70;52.76;100679.91;5092207;28;20055;-60
2022/07/10 02:35:42;;;;;;;9.57;1.40;;;;;;;16.70;52.79;100682.56;5092025;28;20159;-61
2022/07/10 02:38:09;;;;;;;6.53;1.20;;;;;;;16.70;52.77;100677.25;5091943;28;20044;-60
2022/07/10 02:40:35;;;;;;;5.85;1.38;;;;;;;16.70;52.91;100673.75;5092341;28;20052;-61
2022/07/10 02:43:02;;;;;;;6.43;1.23;;;;;;;16.70;52.95;100673.75;5092232;28;20067;-60
2022/07/10 02:45:28;;;;;;;4.45;1.30;;;;;;;16.70;53.01;100671.94;5092031;28;20048;-60
2022/07/10 02:47:55;;;;;;;4.80;1.05;;;;;;;16.71;52.84;100670.97;5091885;28;20060;-60
2022/07/10 02:50:22;;;;;;;5.75;1.38;;;;;;;16.71;52.79;100673.63;5091397;28;20060;-61
2022/07/10 02:52:48;;;;;;;6.60;1.70;;;;;;;16.73;52.87;100674.38;5091960;28;20055;-62
2022/07/10 02:55:15;;;;;;;6.20;1.10;;;;;;;16.72;53.03;100664.72;5091967;28;20064;-62
2022/07/10 02:57:41;;;;;;;3.78;1.13;;;;;;;16.73;52.87;100670.88;5091854;28;20059;-60
2022/07/10 03:00:09;;;;;;;5.45;1.02;;;;;;;16.73;52.83;100669.06;5091308;28;20551;-62
2022/07/10 03:02:35;;;;;;;6.15;1.58;;;;;;;16.72;52.95;100672.69;5090312;28;20059;-60
2022/07/10 03:05:02;;;;;;;5.07;1.42;;;;;;;16.72;52.85;100670.03;5091447;28;20500;-61
2022/07/10 03:07:29;;;;;;;6.00;1.38;;;;;;;16.70;52.82;100663.94;5091394;28;20052;-64
2022/07/10 03:09:55;;;;;;;8.55;1.25;;;;;;;16.69;52.98;100664.91;5091239;28;20063;-61
2022/07/10 03:12:22;;;;;;;5.00;1.20;;;;;;;16.69;53.10;100670.22;5091339;28;20044;-59
2022/07/10 03:14:49;;;;;;;6.03;1.17;;;;;;;16.68;53.18;100666.72;5091601;28;20055;-60
2022/07/10 03:17:15;;;;;;;8.13;1.60;;;;;;;16.69;53.30;100667.56;5091286;28;20492;-63
2022/07/10 03:19:42;;;;;;;3.03;0.98;;;;;;;16.69;53.18;100667.56;5090935;28;20052;-60
2022/07/10 03:22:08;;;;;;;5.25;1.27;;;;;;;16.70;53.22;100660.47;5091127;28;20057;-60
2022/07/10 03:24:35;;;;;;;6.07;1.42;;;;;;;16.68;53.26;100669.38;5091182;28;20637;-60
2022/07/10 03:27:01;;;;;;;4.20;1.15;;;;;;;16.67;53.37;100667.69;5091309;28;20413;-62
2022/07/10 03:29:28;;;;;;;7.35;1.08;;;;;;;16.67;53.32;100666.81;5091195;28;20075;-60
2022/07/10 03:31:55;;;;;;;6.25;1.13;;;;;;;16.67;53.37;100673.00;5090283;28;20050;-62
2022/07/10 03:34:21;;;;;;;7.72;1.55;;;;;;;16.66;53.55;100665.97;5090918;28;20135;-61
2022/07/10 03:36:48;;;;;;;8.57;1.45;;;;;;;16.67;53.60;100678.31;5090965;28;20056;-61
2022/07/10 03:39:14;;;;;;;4.45;1.33;;;;;;;16.67;53.75;100670.34;5090853;28;20493;-60
2022/07/10 03:41:41;;;;;;;5.47;1.10;;;;;;;16.68;53.75;100673.84;5091065;28;20064;-61
2022/07/10 03:44:07;;;;;;;7.65;1.50;;;;;;;16.69;53.74;100675.56;5090934;28;20059;-61
2022/07/10 03:46:34;;;;;;;5.25;1.20;;;;;;;16.69;53.70;100670.22;5090745;28;20052;-63
2022/07/10 03:49:01;;;;;;;3.38;1.25;;;;;;;16.70;53.73;100679.06;5090477;28;20090;-62
2022/07/10 03:51:27;;;;;;;8.27;1.52;;;;;;;16.69;53.69;100678.22;5090995;28;20443;-61
2022/07/10 03:53:54;;;;;;;5.40;1.40;;;;;;;16.69;53.83;100683.53;5090615;28;20403;-60
2022/07/10 03:59:05;;;;;;;4.63;1.58;;;;;;;16.68;53.72;100698.63;5090530;28;20052;-61
2022/07/10 04:01:32;;;;;;;3.63;1.48;;;;;;;16.69;53.94;100694.16;5090763;28;20044;-61
2022/07/10 04:03:59;;;;;;;6.95;1.45;;;;;;;16.69;53.94;100694.16;5090692;28;20056;-61
2022/07/10 04:06:25;;;;;;;5.35;1.45;;;;;;;16.69;53.86;100683.53;5089556;28;20403;-60
2022/07/10 04:08:52;;;;;;;6.57;1.45;;;;;;;16.70;53.92;100684.38;5090477;28;20083;-60
2022/07/10 04:11:18;;;;;;;9.75;1.60;;;;;;;16.70;54.16;100682.56;5090569;28;20055;-63
2022/07/10 04:13:45;;;;;;;10.57;1.60;;;;;;;16.70;54.07;100693.19;5093565;28;20056;-60
2022/07/10 04:16:12;;;;;;;6.32;1.33;;;;;;;16.71;54.25;100681.59;5094833;28;20052;-60
2022/07/10 04:18:39;;;;;;;4.43;1.38;;;;;;;16.71;54.28;100681.59;5093405;28;20040;-62
2022/07/10 04:21:07;;;;;;;7.15;1.63;;;;;;;16.73;54.13;100686.81;5094673;28;20508;-61
2022/07/10 04:23:34;;;;;;;9.43;1.77;;;;;;;16.74;54.40;100686.72;5093500;28;20048;-61
2022/07/10 04:26:01;;;;;;;7.72;1.83;;;;;;;16.75;54.29;100688.41;5094660;28;20063;-60
2022/07/10 04:28:27;;;;;;;5.68;1.60;;;;;;;16.76;54.30;100682.16;5094440;28;20056;-60
2022/07/10 04:30:54;;;;;;;6.38;1.67;;;;;;;16.78;54.26;100682.03;5094771;28;20399;-61
2022/07/10 04:33:21;;;;;;;9.35;1.88;;;;;;;16.79;54.38;100689.91;5094329;28;20078;-60
2022/07/10 04:35:48;;;;;;;5.60;1.48;;;;;;;16.80;54.15;100680.13;5094530;28;20601;-61
2022/07/10 04:38:14;;;;;;;17.70;1.70;;;;;;;16.79;54.47;100687.25;5094119;28;20063;-61
2022/07/10 04:40:41;;;;;;;4.78;1.20;;;;;;;16.78;54.46;100685.56;5094398;28;20052;-62
2022/07/10 04:43:09;;;;;;;7.72;1.58;;;;;;;16.79;54.36;100683.75;5094126;28;20051;-61
2022/07/10 04:45:37;;;;;;;8.93;1.60;;;;;;;16.80;54.59;100686.31;5093158;28;20055;-61
2022/07/10 04:48:05;;;;;;;5.40;1.38;;;;;;;16.83;54.47;100684.38;5092630;28;20062;-61
2022/07/10 04:50:32;;;;;;;4.88;1.02;;;;;;;16.85;54.53;100671.84;5094303;28;20059;-62
2022/07/10 04:52:58;;;;;;;11.75;1.50;;;;;;;16.88;54.66;100679.59;5094103;28;20066;-61
2022/07/10 04:55:25;;;;;;;7.68;1.20;;;;;;;16.89;54.50;100675.97;5094080;28;20040;-61
2022/07/10 04:57:51;;;;;;;4.25;1.15;;;;;;;16.92;54.44;100675.78;5092773;28;20575;-63
2022/07/10 05:00:18;;;;;;;6.80;1.33;;;;;;;16.93;54.64;100680.13;5092452;28;20048;-60
2022/07/10 05:02:45;;;;;;;7.57;1.60;;;;;;;16.95;54.42;100686.19;5094031;28;20059;-60
2022/07/10 05:05:11;;;;;;;5.90;1.25;;;;;;;16.99;54.59;100681.50;5092826;28;20492;-61
2022/07/10 05:07:38;;;;;;;6.68;1.50;;;;;;;17.02;54.33;100679.50;5093839;28;20052;-61
2022/07/10 05:10:05;;;;;;;5.07;1.85;;;;;;;17.04;54.49;100679.38;5093581;28;20470;-60
2022/07/10 05:12:32;;;;;;;5.50;1.40;;;;;;;17.07;54.45;100673.88;5092406;28;20470;-71
2022/07/10 05:14:59;;;;;;;9.27;1.27;;;;;;;17.08;54.41;100674.75;5093697;28;20060;-67
2022/07/10 05:17:28;;;;;;;6.13;1.23;;;;;;;17.11;54.66;100679.84;5093695;28;20070;-71
2022/07/10 05:19:56;;;;;;;11.85;1.48;;;;;;;17.14;54.50;100687.59;5091959;28;20526;-61
2022/07/10 05:22:23;;;;;;;6.60;1.40;;;;;;;17.16;54.37;100688.38;5092169;28;20145;-62
2022/07/10 05:24:50;;;;;;;7.60;1.73;;;;;;;17.18;54.25;100689.97;5091492;28;20036;-61
2022/07/10 05:27:19;;;;;;;6.43;1.50;;;;;;;17.21;54.17;100694.22;5092921;28;20515;-62
2022/07/10 05:29:47;;;;;;;5.82;1.10;;;;;;;17.23;54.32;100697.59;5091268;28;20048;-62
2022/07/10 05:32:14;;;;;;;7.30;1.42;;;;;;;17.26;54.19;100684.09;5091591;28;20048;-60
2022/07/10 05:34:41;;;;;;;4.30;1.38;;;;;;;17.28;54.10;100690.16;5092706;28;20492;-60
2022/07/10 05:37:07;;;;;;;7.10;1.70;;;;;;;17.31;54.07;100691.75;5092764;28;20078;-63
2022/07/10 05:39:34;;;;;;;5.55;1.25;;;;;;;17.32;53.88;100686.31;5092588;28;20492;-60
2022/07/10 05:42:01;;;;;;;6.55;1.60;;;;;;;17.35;53.73;100692.38;5093281;28;20047;-60
2022/07/10 05:44:27;;;;;;;7.78;1.88;;;;;;;17.36;53.63;100688.75;5093002;28;20059;-62
2022/07/10 05:46:54;;;;;;;6.05;1.83;;;;;;;17.37;53.62;100690.44;5093104;28;20053;-61
2022/07/10 05:49:21;;;;;;;8.23;1.52;;;;;;;17.37;53.52;100685.13;5092836;28;20066;-63
2022/07/10 05:51:47;;;;;;;6.30;1.50;;;;;;;17.38;53.53;100689.50;5092378;28;20055;-62
2022/07/10 05:54:14;;;;;;;4.07;1.30;;;;;;;17.40;53.69;100688.44;5093348;28;20055;-60
2022/07/10 05:56:41;;;;;;;8.68;1.08;;;;;;;17.42;53.62;100693.66;5092950;28;20059;-63
2022/07/10 05:59:07;;;;;;;6.43;1.50;;;;;;;17.44;53.59;100689.06;5092657;28;20063;-61
2022/07/10 06:01:34;;;;;;;6.68;1.30;;;;;;;17.48;53.40;100697.66;5092813;28;20052;-61
2022/07/10 06:04:01;;;;;;;6.28;1.42;;;;;;;17.51;53.32;100684.16;5092474;28;20048;-60
2022/07/10 06:06:28;;;;;;;7.50;1.45;;;;;;;17.54;53.35;100694.59;5092612;28;20056;-60
2022/07/10 06:08:55;;;;;;;9.65;1.45;;;;;;;17.57;53.18;100689.06;5092729;28;20052;-61
2022/07/10 06:11:21;;;;;;;4.05;1.10;;;;;;;17.61;53.43;100687.00;5091455;28;20063;-63
2022/07/10 06:13:48;;;;;;;11.40;1.80;;;;;;;17.63;53.10;100687.72;5092587;28;20064;-61
2022/07/10 06:16:14;;;;;;;8.68;1.65;;;;;;;17.67;53.27;100690.06;5092465;28;20052;-60
2022/07/10 06:18:41;;;;;;;5.05;1.60;;;;;;;17.74;53.31;100689.63;5091090;28;20124;-62
2022/07/10 06:21:09;;;;;;;6.43;1.35;;;;;;;17.80;52.86;100689.19;5092382;28;20109;-61
2022/07/10 06:23:35;;;;;;;7.68;1.45;;;;;;;17.84;52.99;100685.34;5092568;28;20052;-62
2022/07/10 06:26:02;;;;;;;6.30;1.42;;;;;;;17.87;52.82;100694.91;5092481;28;20051;-60
2022/07/10 06:28:28;;;;;;;5.47;1.42;;;;;;;17.88;52.58;100686.81;5090684;28;20515;-60
2022/07/10 06:30:55;;;;;;;11.30;1.30;;;;;;;17.89;52.39;100699.16;5092309;28;20056;-60
2022/07/10 06:33:26;;;;;;;6.53;1.52;;;;;;;17.91;52.45;100696.41;5091999;28;20087;-63
2022/07/10 06:35:52;;;;;;;4.63;1.10;;;;;;;17.93;52.68;100694.47;5091530;28;20052;-61
2022/07/10 06:38:19;;;;;;;4.40;1.10;;;;;;;17.95;53.00;100698.72;5092003;28;20079;-60
2022/07/10 06:40:47;;;;;;;6.22;1.30;;;;;;;18.00;53.12;100690.41;5092218;28;20155;-64
2022/07/10 06:43:13;;;;;;;6.72;1.30;;;;;;;18.06;52.99;100689.94;5091852;28;20392;-60
2022/07/10 06:45:40;;;;;;;7.03;1.63;;;;;;;18.14;52.93;100680.56;5092034;28;20148;-61
2022/07/10 06:48:08;;;;;;;5.00;1.65;;;;;;;18.21;52.64;100681.81;5091486;28;20399;-60
2022/07/10 06:50:34;;;;;;;7.97;1.77;;;;;;;18.28;52.49;100683.03;5090714;28;20487;-62
2022/07/10 06:53:03;;;;;;;5.60;1.25;;;;;;;18.34;52.35;100679.91;5091589;28;20055;-61
2022/07/10 06:55:31;;;;;;;7.45;1.50;;;;;;;18.39;52.16;100684.06;5090670;28;20079;-59
2022/07/10 06:57:58;;;;;;;4.53;1.30;;;;;;;18.42;51.38;100686.47;5090240;28;20052;-67
2022/07/10 07:00:25;;;;;;;8.52;2.00;;;;;;;18.47;51.69;100684.34;5091522;28;20073;-62
2022/07/10 07:02:52;;;;;;;5.72;1.40;;;;;;;18.48;51.60;100686.03;5091421;28;20475;-63
2022/07/10 07:05:20;;;;;;;5.47;1.20;;;;;;;18.53;52.17;100691.00;5091472;28;20047;-60
2022/07/10 07:07:46;;;;;;;5.82;1.38;;;;;;;18.57;51.98;100689.78;5090289;28;20605;-62
2022/07/10 07:10:13;;;;;;;7.43;1.33;;;;;;;18.64;51.49;100677.69;5091348;28;20052;-61
2022/07/10 07:12:40;;;;;;;4.93;1.20;;;;;;;18.70;51.39;100671.06;5091302;28;20051;-61
2022/07/10 07:15:07;;;;;;;5.15;1.48;;;;;;;18.77;51.09;100682.09;5091278;28;20071;-60
2022/07/10 07:17:56;;;;;;;4.10;1.17;;;;;;;18.79;51.02;100689.00;5091299;28;20421;-62
2022/07/10 07:23:10;;;;;;;7.50;1.90;;;;;;;18.92;51.00;100696.06;5091210;28;20048;-60
2022/07/10 07:25:41;;;;;;;6.60;1.20;;;;;;;18.93;51.12;100692.41;5091090;28;20083;-61
2022/07/10 07:28:10;;;;;;;5.43;1.17;;;;;;;18.96;51.18;100694.84;5089237;28;20059;-62
2022/07/10 07:30:37;;;;;;;5.20;1.35;;;;;;;18.98;51.30;100692.91;5088687;28;20080;-62
2022/07/10 07:33:04;;;;;;;7.30;1.42;;;;;;;19.02;51.09;100694.38;5091017;28;20048;-61
2022/07/10 07:35:30;;;;;;;7.72;1.83;;;;;;;19.07;51.12;100694.91;5090954;28;20044;-61
2022/07/10 07:37:57;;;;;;;5.63;1.70;;;;;;;19.12;51.43;100698.06;5091015;28;20044;-64
2022/07/10 07:40:24;;;;;;;5.35;1.20;;;;;;;19.18;51.20;100696.75;5090710;28;20059;-61
2022/07/10 07:42:54;;;;;;;6.43;1.58;;;;;;;19.26;51.11;100707.63;5088760;28;20060;-61
2022/07/10 07:45:22;;;;;;;6.13;1.58;;;;;;;19.33;51.13;100702.66;5089294;28;20052;-61
2022/07/10 07:47:55;;;;;;;5.13;1.27;;;;;;;19.40;51.20;100703.88;5088691;28;20059;-61
2022/07/10 07:50:26;;;;;;;5.50;1.35;;;;;;;19.50;50.95;100703.16;5090645;28;20048;-62
2022/07/10 07:52:53;;;;;;;6.63;1.23;;;;;;;19.56;50.94;100705.34;5090805;28;20048;-61
2022/07/10 07:55:21;;;;;;;8.73;1.98;;;;;;;19.59;50.88;100699.72;5090927;28;20730;-62
2022/07/10 07:57:53;;;;;;;7.45;1.33;;;;;;;19.63;50.84;100701.19;5090709;28;20063;-62
2022/07/10 08:00:22;;;;;;;5.70;1.90;;;;;;;19.68;50.84;100698.16;5089415;28;20105;-61
2022/07/10 08:02:53;;;;;;;9.32;1.60;;;;;;;19.72;50.98;100704.94;5089475;28;20080;-61
2022/07/10 08:05:21;;;;;;;6.00;1.30;;;;;;;19.78;50.97;100706.28;5089077;28;20053;-62
2022/07/10 08:07:51;;;;;;;8.25;1.63;;;;;;;19.81;50.39;100700.66;5089386;28;20052;-61
2022/07/10 08:10:21;;;;;;;5.20;1.33;;;;;;;19.85;50.62;100709.31;5089156;28;20063;-61
2022/07/10 08:12:48;;;;;;;3.38;1.33;;;;;;;19.85;50.51;100699.44;5090610;28;20457;-61
2022/07/10 08:15:16;;;;;;;8.95;1.52;;;;;;;19.86;50.75;100698.50;5090435;28;20059;-62
2022/07/10 08:17:43;;;;;;;5.30;1.65;;;;;;;19.88;50.64;100699.22;5089259;28;20051;-60
2022/07/10 08:20:11;;;;;;;6.22;1.63;;;;;;;19.91;50.81;100698.97;5090566;28;20044;-62
2022/07/10 08:22:40;;;;;;;6.57;1.63;;;;;;;19.95;51.12;100696.88;5089509;28;20048;-62
2022/07/10 08:25:08;;;;;;;6.35;1.60;;;;;;;20.02;51.15;100694.59;5089486;28;20142;-61
2022/07/10 08:27:35;;;;;;;7.50;1.65;;;;;;;20.10;50.89;100697.47;5090107;28;20427;-62
2022/07/10 08:30:01;;;;;;;6.03;1.17;;;;;;;20.22;51.14;100689.44;5090320;28;20417;-61
2022/07/10 08:32:28;;;;;;;5.72;1.52;;;;;;;20.31;50.97;100694.00;5090341;28;20048;-61
2022/07/10 08:34:55;;;;;;;4.80;1.25;;;;;;;20.40;49.83;100693.22;5090183;28;20052;-62
2022/07/10 08:37:22;;;;;;;4.88;1.63;;;;;;;20.46;50.11;100686.53;5090506;28;20048;-62
2022/07/10 08:39:49;;;;;;;4.85;1.30;;;;;;;20.50;50.01;100689.78;5090129;28;20067;-61
2022/07/10 08:42:16;;;;;;;4.95;1.15;;;;;;;20.54;50.07;100689.41;5090193;28;20064;-61
2022/07/10 08:44:43;;;;;;;9.65;1.73;;;;;;;20.59;49.96;100680.13;5090232;28;20052;-64
2022/07/10 08:47:11;;;;;;;4.85;1.35;;;;;;;20.63;49.92;100679.72;5090501;28;20040;-61
2022/07/10 08:49:46;;;;;;;4.22;1.05;;;;;;;20.67;49.57;100699.88;5090000;28;20052;-62
2022/07/10 08:52:27;;;;;;;3.00;1.20;;;;;;;20.70;49.18;100688.94;5089145;28;20044;-62
2022/07/10 08:54:54;;;;;;;3.92;1.20;;;;;;;20.69;49.28;100687.25;5089016;28;20134;-61
2022/07/10 08:57:22;;;;;;;3.80;1.10;;;;;;;20.67;49.15;100694.53;5090015;28;20056;-62
2022/07/10 08:59:49;;;;;;;5.45;1.40;;;;;;;20.65;49.44;100684.94;5091751;28;20039;-63
2022/07/10 09:02:15;;;;;;;5.95;1.10;;;;;;;20.63;49.37;100682.41;5094081;28;20048;-61
2022/07/10 09:04:42;;;;;;;4.40;1.30;;;;;;;20.61;49.73;100684.38;5093861;28;20480;-61
2022/07/10 09:07:09;;;;;;;4.03;1.17;;;;;;;20.63;49.79;100682.41;5093683;28;20485;-61
2022/07/10 09:09:54;;;;;;;4.13;1.13;;;;;;;20.59;49.73;100680.97;5092183;28;20056;-61
2022/07/10 09:12:22;;;;;;;3.40;1.27;;;;;;;20.68;49.44;100679.34;5092414;28;20048;-64
2022/07/10 09:14:50;;;;;;;9.90;1.13;;;;;;;20.70;49.50;100680.03;5092572;28;20060;-63
2022/07/10 09:17:17;;;;;;;5.88;1.10;;;;;;;20.70;49.30;100680.91;5093615;28;20044;-65
2022/07/10 09:19:44;;;;;;;3.00;0.98;;;;;;;20.68;49.42;100680.16;5093322;28;20052;-61
2022/07/10 09:22:14;;;;;;;3.70;1.20;;;;;;;20.65;49.21;100680.47;5093558;28;20059;-61
2022/07/10 09:24:44;;;;;;;2.05;0.80;;;;;;;20.63;49.42;100677.03;5092425;28;20055;-61
2022/07/10 09:27:15;;;;;;;3.22;1.10;;;;;;;20.61;49.46;100673.66;5092361;28;20067;-62
2022/07/10 09:29:51;;;;;;;6.05;1.35;;;;;;;20.60;49.52;100681.81;5091999;28;20105;-60
2022/07/10 09:32:18;;;;;;;3.92;1.13;;;;;;;20.62;49.53;100682.53;5092290;28;20067;-63
2022/07/10 09:34:47;;;;;;;6.75;1.80;;;;;;;20.60;49.86;100680.00;5093163;28;20056;-62
2022/07/10 09:37:21;;;;;;;5.15;1.35;;;;;;;20.56;49.86;100674.06;5092080;28;20771;-61
2022/07/10 09:40:04;;;;;;;3.40;1.20;;;;;;;20.55;50.07;100682.19;5091466;28;20044;-62
2022/07/10 09:42:36;;;;;;;4.47;1.30;;;;;;;20.56;50.22;100678.56;5091809;28;20044;-61
2022/07/10 09:45:16;;;;;;;7.90;1.80;;;;;;;20.49;50.46;100678.25;5091812;28;20044;-63
2022/07/10 09:47:44;;;;;;;4.07;1.40;;;;;;;20.48;50.40;100678.38;5091597;28;20052;-61
2022/07/10 09:50:31;;;;;;;3.72;1.55;;;;;;;20.36;50.60;100672.22;5091519;28;20062;-62
2022/07/10 09:52:59;;;;;;;6.15;1.10;;;;;;;20.34;50.60;100669.69;5092007;28;20063;-61
2022/07/10 09:55:31;;;;;;;2.83;1.13;;;;;;;20.26;50.93;100677.50;5092835;28;20044;-61
2022/07/10 09:58:03;;;;;;;4.47;1.73;;;;;;;20.21;51.30;100682.34;5091934;28;20098;-67
2022/07/10 10:00:32;;;;;;;4.68;1.30;;;;;;;20.16;51.70;100680.94;5091649;28;20044;-63
2022/07/10 10:03:00;;;;;;;3.70;1.33;;;;;;;20.13;52.23;100697.22;5093166;28;20052;-61
2022/07/10 10:05:42;;;;;;;8.57;1.95;;;;;;;20.06;53.05;100685.34;5091361;28;20078;-63
2022/07/10 10:08:17;;;;;;;3.72;1.08;;;;;;;20.02;53.92;100692.78;5092485;28;20506;-63
2022/07/10 10:10:47;;;;;;;4.68;1.38;;;;;;;20.03;53.34;100685.59;5090490;28;20102;-61
2022/07/10 10:13:20;;;;;;;3.10;0.80;;;;;;;20.02;54.29;100681.22;5074865;28;20143;-62
2022/07/10 10:15:48;;;;;;;2.92;1.00;;;;;;;20.05;53.86;100679.16;5091388;28;20054;-61
2022/07/10 10:18:24;;;;;;;2.17;0.82;;;;;;;20.09;54.08;100684.22;5091261;28;20068;-62
2022/07/10 10:20:55;;;;;;;2.92;1.00;;;;;;;20.13;54.54;100673.19;5091047;28;20051;-64
2022/07/10 10:23:24;;;;;;;2.05;1.02;;;;;;;20.20;54.36;100672.66;5092543;28;20055;-62
2022/07/10 10:25:56;;;;;;;5.43;1.25;;;;;;;20.23;55.29;100670.59;5092334;28;20056;-64
2022/07/10 10:28:26;;;;;;;4.30;0.90;;;;;;;20.30;54.85;100661.06;5092234;28;20052;-61
2022/07/10 10:30:58;;;;;;;3.40;0.98;;;;;;;20.36;54.37;100664.19;5092518;28;20059;-61
2022/07/10 10:33:45;;;;;;;4.03;0.80;;;;;;;20.37;54.33;100666.72;5091053;28;20044;-61
2022/07/10 10:36:17;;;;;;;2.63;1.05;;;;;;;20.44;53.78;100678.63;5092149;28;20056;-63
2022/07/10 10:38:51;;;;;;;4.43;1.27;;;;;;;20.39;54.29;100672.81;5092227;28;20051;-63
2022/07/10 10:41:26;;;;;;;2.00;0.60;;;;;;;20.35;54.60;100674.06;5090274;28;20511;-63
2022/07/10 10:44:15;;;;;;;2.35;0.80;;;;;;;20.29;55.29;100670.06;5091865;28;20056;-61
2022/07/10 10:47:05;;;;;;;4.00;0.70;;;;;;;20.29;56.28;100667.38;5090684;28;20090;-60
2022/07/10 10:49:49;;;;;;;3.80;1.00;;;;;;;20.33;56.01;100665.28;5091769;28;20059;-63
2022/07/10 10:52:17;;;;;;;1.70;0.50;;;;;;;20.41;55.58;100657.47;5090647;28;20044;-62
2022/07/10 10:54:56;;;;;;;0.63;0.40;;;;;;;20.44;56.13;100657.22;5091962;28;20094;-61
2022/07/10 10:57:45;;;;;;;1.80;0.60;;;;;;;20.55;55.81;100659.00;5091786;28;20063;-62
2022/07/10 11:00:16;;;;;;;1.85;0.70;;;;;;;20.63;55.76;100658.31;5090149;28;20056;-63
2022/07/10 11:02:43;;;;;;;1.77;0.63;;;;;;;20.70;55.41;100647.94;5090698;28;20678;-60
2022/07/10 11:05:19;;;;;;;1.17;0.40;;;;;;;20.73;55.13;100646.81;5091860;28;20416;-61
2022/07/10 11:08:03;;;;;;;1.10;0.52;;;;;;;20.72;54.64;100646.00;5090249;28;20059;-63
2022/07/10 11:10:35;;;;;;;2.22;0.73;;;;;;;20.74;54.39;100659.25;5090197;28;20059;-60
2022/07/10 11:13:04;;;;;;;5.20;1.33;;;;;;;20.69;54.40;100664.97;5091522;28;20459;-62
2022/07/10 11:15:32;;;;;;;1.90;0.88;;;;;;;20.60;54.57;100666.63;5091421;28;20503;-62
2022/07/10 11:18:09;;;;;;;1.52;0.70;;;;;;;20.49;55.09;100674.72;5089706;28;20044;-62
2022/07/10 11:20:46;;;;;;;1.98;0.73;;;;;;;20.36;55.62;100678.41;5089751;28;20047;-62
2022/07/10 11:23:43;;;;;;;2.95;0.77;;;;;;;20.27;56.33;100676.50;5089473;28;20048;-63
2022/07/10 11:26:21;;;;;;;1.50;0.80;;;;;;;20.25;56.60;100679.31;5091253;28;20413;-63
2022/07/10 11:29:01;;;;;;;2.42;1.05;;;;;;;20.21;56.97;100682.34;5089786;28;20407;-61
2022/07/10 11:31:29;;;;;;;2.58;0.90;;;;;;;20.23;56.29;100681.28;5089699;28;20492;-61
2022/07/10 11:33:56;;;;;;;2.17;0.70;;;;;;;20.23;56.11;100675.06;5090777;28;20052;-60
2022/07/10 11:36:34;;;;;;;2.58;0.98;;;;;;;20.22;56.59;100666.19;5089839;28;20550;-61
2022/07/10 11:39:04;;;;;;;2.10;0.60;;;;;;;20.23;57.19;100672.41;5090551;28;20050;-62